createdAt,value
2018-01-24T20:55:54.963Z,21.91
2018-01-24T20:57:04.188Z,21.92
2018-01-24T20:58:13.439Z,21.91
2018-01-24T20:59:22.165Z,21.91
2018-01-24T21:00:31.120Z,21.96
2018-01-24T21:01:40.062Z,21.9
2018-01-24T21:02:49.266Z,21.84
2018-01-24T21:03:58.247Z,21.91
2018-01-24T21:05:07.462Z,21.91
2018-01-24T21:06:16.916Z,21.91
2018-01-24T21:07:25.597Z,21.83
2018-01-24T21:08:34.535Z,21.92
2018-01-24T21:09:43.219Z,21.98
2018-01-24T21:10:52.163Z,21.94
2018-01-24T21:12:01.641Z,21.91
2018-01-24T21:13:10.884Z,21.94
2018-01-24T21:14:19.852Z,21.91
2018-01-24T21:15:28.862Z,21.88
2018-01-24T21:16:37.551Z,22
2018-01-24T21:17:46.767Z,21.98
2018-01-24T21:18:55.727Z,21.86
2018-01-24T21:20:04.677Z,21.96
2018-01-24T21:21:13.663Z,21.99
2018-01-24T21:22:22.895Z,21.92
2018-01-24T21:23:32.152Z,21.99
2018-01-24T21:24:41.168Z,21.9
2018-01-24T21:25:50.139Z,21.96
2018-01-24T21:26:58.844Z,21.99
2018-01-24T21:28:07.787Z,21.99
2018-01-24T21:29:16.997Z,22.02
2018-01-24T21:30:25.696Z,21.94
2018-01-24T21:31:34.669Z,22.02
2018-01-24T21:32:43.632Z,21.98
2018-01-24T21:33:53.101Z,22.05
2018-01-24T21:35:02.324Z,22
2018-01-24T21:36:11.820Z,21.99
2018-01-24T21:37:21.038Z,22
2018-01-24T21:38:29.742Z,22.1
2018-01-24T21:39:39.213Z,22.06
2018-01-24T21:40:48.457Z,22.14
2018-01-24T21:41:57.174Z,22.02
2018-01-24T21:43:06.656Z,22.07
2018-01-24T21:44:15.868Z,22.07
2018-01-24T21:45:25.349Z,22.15
2018-01-24T21:46:34.320Z,22.18
2018-01-24T21:47:43.288Z,22.2
2018-01-24T21:48:51.984Z,22.1
2018-01-24T21:50:00.946Z,22.18
2018-01-24T21:51:09.890Z,22.24
2018-01-24T21:52:19.631Z,22.24
2018-01-24T21:53:28.593Z,22.2
2018-01-24T21:54:37.821Z,22.17
2018-01-24T21:55:47.273Z,22.21
2018-01-24T21:56:56.487Z,22.21
2018-01-24T21:58:05.183Z,22.24
2018-01-24T21:59:14.125Z,22.2
2018-01-24T22:00:23.346Z,22.21
2018-01-24T22:01:32.305Z,22.2
2018-01-24T22:02:41.520Z,22.22
2018-01-24T22:03:50.769Z,22.17
2018-01-24T22:04:59.737Z,22.21
2018-01-24T22:06:08.684Z,22.22
2018-01-24T22:07:17.637Z,22.21
2018-01-24T22:08:27.384Z,22.17
2018-01-24T22:09:36.329Z,22.18
2018-01-24T22:10:45.606Z,22.2
2018-01-24T22:11:54.840Z,22.21
2018-01-24T22:13:03.778Z,22.2
2018-01-24T22:14:12.474Z,22.18
2018-01-24T22:15:21.172Z,22.18
2018-01-24T22:16:30.462Z,22.21
2018-01-24T22:17:39.419Z,22.17
2018-01-24T22:18:48.367Z,22.2
2018-01-24T22:19:57.589Z,22.18
2018-01-24T22:21:06.544Z,22.15
2018-01-24T22:22:15.827Z,22.14
2018-01-24T22:23:24.955Z,22.18
2018-01-24T22:24:34.246Z,22.18
2018-01-24T22:25:43.239Z,22.15
2018-01-24T22:26:51.936Z,22.22
2018-01-24T22:28:01.575Z,22.15
2018-01-24T22:29:11.066Z,22.2
2018-01-24T22:30:19.750Z,22.18
2018-01-24T22:31:29.262Z,22.18
2018-01-24T22:32:38.313Z,22.18
2018-01-24T22:33:47.271Z,22.18
2018-01-24T22:34:55.963Z,22.22
2018-01-24T22:36:05.461Z,22.17
2018-01-24T22:37:14.970Z,22.15
2018-01-24T22:38:24.502Z,22.2
2018-01-24T22:39:34.033Z,22.18
2018-01-24T22:40:42.711Z,22.2
2018-01-24T22:41:52.194Z,22.2
2018-01-24T22:43:01.155Z,22.2
2018-01-24T22:44:09.870Z,22.17
2018-01-24T22:45:19.391Z,22.15
